sensor_id;sensor_type;location;lat;lon;timestamp;P1;durP1;ratioP1;P2;durP2;ratioP2
67074;SDS011;53990;50.334;18.640;2022-10-16T00:01:14;20.90;;;14.20;;
67074;SDS011;53990;50.334;18.640;2022-10-16T00:03:44;19.30;;;14.10;;
67074;SDS011;53990;50.334;18.640;2022-10-16T00:06:12;19.00;;;14.60;;
67074;SDS011;53990;50.334;18.640;2022-10-16T00:08:40;20.10;;;14.20;;
67074;SDS011;53990;50.334;18.640;2022-10-16T00:11:13;21.50;;;14.00;;
67074;SDS011;53990;50.334;18.640;2022-10-16T00:13:42;19.40;;;13.70;;
67074;SDS011;53990;50.334;18.640;2022-10-16T00:16:11;19.10;;;14.10;;
67074;SDS011;53990;50.334;18.640;2022-10-16T00:18:39;16.80;;;13.10;;
67074;SDS011;53990;50.334;18.640;2022-10-16T00:21:10;23.20;;;14.70;;
67074;SDS011;53990;50.334;18.640;2022-10-16T00:23:38;22.30;;;15.00;;
67074;SDS011;53990;50.334;18.640;2022-10-16T00:26:08;18.80;;;13.40;;
67074;SDS011;53990;50.334;18.640;2022-10-16T00:28:37;18.50;;;13.00;;
67074;SDS011;53990;50.334;18.640;2022-10-16T00:31:07;21.30;;;14.10;;
67074;SDS011;53990;50.334;18.640;2022-10-16T00:33:35;19.00;;;14.40;;
67074;SDS011;53990;50.334;18.640;2022-10-16T00:36:03;20.40;;;14.70;;
67074;SDS011;53990;50.334;18.640;2022-10-16T00:38:31;21.00;;;14.90;;
67074;SDS011;53990;50.334;18.640;2022-10-16T00:40:58;21.00;;;14.70;;
67074;SDS011;53990;50.334;18.640;2022-10-16T00:43:44;20.10;;;13.50;;
67074;SDS011;53990;50.334;18.640;2022-10-16T00:46:15;21.60;;;14.50;;
67074;SDS011;53990;50.334;18.640;2022-10-16T00:48:51;20.50;;;14.20;;
67074;SDS011;53990;50.334;18.640;2022-10-16T00:51:23;20.50;;;14.10;;
67074;SDS011;53990;50.334;18.640;2022-10-16T00:53:52;21.30;;;15.10;;
67074;SDS011;53990;50.334;18.640;2022-10-16T00:56:19;18.40;;;14.00;;
67074;SDS011;53990;50.334;18.640;2022-10-16T00:58:47;20.20;;;14.20;;
67074;SDS011;53990;50.334;18.640;2022-10-16T01:01:14;20.60;;;14.60;;
67074;SDS011;53990;50.334;18.640;2022-10-16T01:03:41;22.00;;;14.30;;
67074;SDS011;53990;50.334;18.640;2022-10-16T01:09:16;20.10;;;14.50;;
67074;SDS011;53990;50.334;18.640;2022-10-16T01:17:18;24.80;;;15.00;;
67074;SDS011;53990;50.334;18.640;2022-10-16T01:25:12;21.70;;;14.30;;
67074;SDS011;53990;50.334;18.640;2022-10-16T01:27:45;21.70;;;14.30;;
67074;SDS011;53990;50.334;18.640;2022-10-16T01:32:57;20.50;;;15.00;;
67074;SDS011;53990;50.334;18.640;2022-10-16T01:35:29;21.10;;;15.40;;
67074;SDS011;53990;50.334;18.640;2022-10-16T01:38:05;20.80;;;15.20;;
67074;SDS011;53990;50.334;18.640;2022-10-16T01:40:36;20.50;;;15.30;;
67074;SDS011;53990;50.334;18.640;2022-10-16T01:43:09;22.40;;;15.40;;
67074;SDS011;53990;50.334;18.640;2022-10-16T01:45:38;20.00;;;14.40;;
67074;SDS011;53990;50.334;18.640;2022-10-16T01:48:06;21.60;;;14.80;;
67074;SDS011;53990;50.334;18.640;2022-10-16T01:50:37;22.70;;;14.70;;
67074;SDS011;53990;50.334;18.640;2022-10-16T01:53:09;20.10;;;14.60;;
67074;SDS011;53990;50.334;18.640;2022-10-16T01:55:40;21.10;;;15.00;;
67074;SDS011;53990;50.334;18.640;2022-10-16T01:58:13;21.90;;;15.40;;
67074;SDS011;53990;50.334;18.640;2022-10-16T02:00:43;23.50;;;14.90;;
67074;SDS011;53990;50.334;18.640;2022-10-16T02:03:12;21.50;;;15.30;;
67074;SDS011;53990;50.334;18.640;2022-10-16T02:05:53;22.70;;;14.50;;
67074;SDS011;53990;50.334;18.640;2022-10-16T02:08:23;22.10;;;14.70;;
67074;SDS011;53990;50.334;18.640;2022-10-16T02:10:51;23.50;;;14.40;;
67074;SDS011;53990;50.334;18.640;2022-10-16T02:13:28;23.50;;;14.70;;
67074;SDS011;53990;50.334;18.640;2022-10-16T02:15:56;22.90;;;15.30;;
67074;SDS011;53990;50.334;18.640;2022-10-16T02:18:23;21.20;;;14.10;;
67074;SDS011;53990;50.334;18.640;2022-10-16T02:20:59;21.20;;;15.00;;
67074;SDS011;53990;50.334;18.640;2022-10-16T02:23:45;20.30;;;12.70;;
67074;SDS011;53990;50.334;18.640;2022-10-16T02:26:15;18.80;;;13.90;;
67074;SDS011;53990;50.334;18.640;2022-10-16T02:28:49;21.30;;;14.20;;
67074;SDS011;53990;50.334;18.640;2022-10-16T02:31:23;20.50;;;15.00;;
67074;SDS011;53990;50.334;18.640;2022-10-16T02:33:54;21.40;;;13.50;;
67074;SDS011;53990;50.334;18.640;2022-10-16T02:36:23;21.70;;;14.20;;
67074;SDS011;53990;50.334;18.640;2022-10-16T02:38:50;22.40;;;15.00;;
67074;SDS011;53990;50.334;18.640;2022-10-16T02:41:20;22.10;;;14.30;;
67074;SDS011;53990;50.334;18.640;2022-10-16T02:43:48;20.90;;;13.90;;
67074;SDS011;53990;50.334;18.640;2022-10-16T02:46:17;20.10;;;14.70;;
67074;SDS011;53990;50.334;18.640;2022-10-16T02:48:44;21.70;;;14.30;;
67074;SDS011;53990;50.334;18.640;2022-10-16T02:51:11;23.70;;;15.50;;
67074;SDS011;53990;50.334;18.640;2022-10-16T02:53:39;18.90;;;14.30;;
67074;SDS011;53990;50.334;18.640;2022-10-16T02:56:06;25.40;;;15.80;;
67074;SDS011;53990;50.334;18.640;2022-10-16T02:58:33;19.70;;;14.90;;
67074;SDS011;53990;50.334;18.640;2022-10-16T03:01:00;22.90;;;14.60;;
67074;SDS011;53990;50.334;18.640;2022-10-16T03:03:28;23.00;;;14.70;;
67074;SDS011;53990;50.334;18.640;2022-10-16T03:05:55;24.00;;;15.20;;
67074;SDS011;53990;50.334;18.640;2022-10-16T03:08:22;21.70;;;14.70;;
67074;SDS011;53990;50.334;18.640;2022-10-16T03:10:52;23.90;;;14.50;;
67074;SDS011;53990;50.334;18.640;2022-10-16T03:13:19;21.40;;;14.80;;
67074;SDS011;53990;50.334;18.640;2022-10-16T03:15:47;22.30;;;14.50;;
67074;SDS011;53990;50.334;18.640;2022-10-16T03:18:14;18.30;;;14.40;;
67074;SDS011;53990;50.334;18.640;2022-10-16T03:20:44;24.60;;;15.70;;
67074;SDS011;53990;50.334;18.640;2022-10-16T03:23:12;22.20;;;14.40;;
67074;SDS011;53990;50.334;18.640;2022-10-16T03:25:39;22.10;;;14.00;;
67074;SDS011;53990;50.334;18.640;2022-10-16T03:28:06;20.10;;;14.30;;
67074;SDS011;53990;50.334;18.640;2022-10-16T03:30:33;19.00;;;14.10;;
67074;SDS011;53990;50.334;18.640;2022-10-16T03:33:01;21.00;;;14.40;;
67074;SDS011;53990;50.334;18.640;2022-10-16T03:35:28;18.30;;;14.20;;
67074;SDS011;53990;50.334;18.640;2022-10-16T03:37:55;23.10;;;14.10;;
67074;SDS011;53990;50.334;18.640;2022-10-16T03:40:23;19.20;;;13.80;;
67074;SDS011;53990;50.334;18.640;2022-10-16T03:42:50;21.30;;;13.80;;
67074;SDS011;53990;50.334;18.640;2022-10-16T03:45:17;22.30;;;16.20;;
67074;SDS011;53990;50.334;18.640;2022-10-16T03:47:45;20.20;;;14.40;;
67074;SDS011;53990;50.334;18.640;2022-10-16T03:50:12;21.60;;;13.70;;
67074;SDS011;53990;50.334;18.640;2022-10-16T03:52:39;22.20;;;14.30;;
67074;SDS011;53990;50.334;18.640;2022-10-16T03:55:07;18.80;;;13.70;;
67074;SDS011;53990;50.334;18.640;2022-10-16T03:57:34;21.50;;;13.60;;
67074;SDS011;53990;50.334;18.640;2022-10-16T04:00:02;21.30;;;13.60;;
67074;SDS011;53990;50.334;18.640;2022-10-16T04:02:29;20.10;;;13.70;;
67074;SDS011;53990;50.334;18.640;2022-10-16T04:04:57;21.00;;;14.20;;
67074;SDS011;53990;50.334;18.640;2022-10-16T04:07:24;20.30;;;14.40;;
67074;SDS011;53990;50.334;18.640;2022-10-16T04:09:51;22.30;;;14.80;;
67074;SDS011;53990;50.334;18.640;2022-10-16T04:12:19;23.30;;;14.50;;
67074;SDS011;53990;50.334;18.640;2022-10-16T04:14:46;22.50;;;14.90;;
67074;SDS011;53990;50.334;18.640;2022-10-16T04:17:13;20.90;;;13.70;;
67074;SDS011;53990;50.334;18.640;2022-10-16T04:19:40;20.10;;;14.00;;
67074;SDS011;53990;50.334;18.640;2022-10-16T04:22:07;20.30;;;13.70;;
67074;SDS011;53990;50.334;18.640;2022-10-16T04:24:35;20.20;;;14.20;;
67074;SDS011;53990;50.334;18.640;2022-10-16T04:27:03;18.70;;;13.60;;
67074;SDS011;53990;50.334;18.640;2022-10-16T04:29:30;20.00;;;14.70;;
67074;SDS011;53990;50.334;18.640;2022-10-16T04:31:57;20.20;;;13.70;;
67074;SDS011;53990;50.334;18.640;2022-10-16T04:34:24;21.10;;;14.00;;
67074;SDS011;53990;50.334;18.640;2022-10-16T04:36:51;20.90;;;14.10;;
67074;SDS011;53990;50.334;18.640;2022-10-16T04:39:19;18.90;;;13.60;;
67074;SDS011;53990;50.334;18.640;2022-10-16T04:41:46;23.30;;;13.50;;
67074;SDS011;53990;50.334;18.640;2022-10-16T04:44:13;22.50;;;14.90;;
67074;SDS011;53990;50.334;18.640;2022-10-16T04:46:40;26.00;;;14.30;;
67074;SDS011;53990;50.334;18.640;2022-10-16T04:49:07;19.10;;;13.90;;
67074;SDS011;53990;50.334;18.640;2022-10-16T04:51:35;21.10;;;14.30;;
67074;SDS011;53990;50.334;18.640;2022-10-16T04:54:02;20.90;;;14.40;;
67074;SDS011;53990;50.334;18.640;2022-10-16T04:56:29;22.70;;;14.70;;
67074;SDS011;53990;50.334;18.640;2022-10-16T04:58:56;21.40;;;14.60;;
67074;SDS011;53990;50.334;18.640;2022-10-16T05:01:23;22.70;;;14.30;;
67074;SDS011;53990;50.334;18.640;2022-10-16T05:03:51;20.40;;;14.70;;
67074;SDS011;53990;50.334;18.640;2022-10-16T05:06:18;21.90;;;15.50;;
67074;SDS011;53990;50.334;18.640;2022-10-16T05:08:45;25.70;;;15.40;;
67074;SDS011;53990;50.334;18.640;2022-10-16T05:11:12;22.10;;;14.60;;
67074;SDS011;53990;50.334;18.640;2022-10-16T05:13:39;21.40;;;14.60;;
67074;SDS011;53990;50.334;18.640;2022-10-16T05:16:07;20.30;;;14.80;;
67074;SDS011;53990;50.334;18.640;2022-10-16T05:18:34;24.50;;;15.70;;
67074;SDS011;53990;50.334;18.640;2022-10-16T05:21:01;25.60;;;15.20;;
67074;SDS011;53990;50.334;18.640;2022-10-16T05:23:28;26.60;;;16.10;;
67074;SDS011;53990;50.334;18.640;2022-10-16T05:25:56;29.00;;;18.90;;
67074;SDS011;53990;50.334;18.640;2022-10-16T05:28:26;24.70;;;16.70;;
67074;SDS011;53990;50.334;18.640;2022-10-16T05:30:54;22.80;;;16.40;;
67074;SDS011;53990;50.334;18.640;2022-10-16T05:33:23;25.30;;;17.30;;
67074;SDS011;53990;50.334;18.640;2022-10-16T05:35:51;30.00;;;17.60;;
67074;SDS011;53990;50.334;18.640;2022-10-16T05:38:18;26.30;;;17.80;;
67074;SDS011;53990;50.334;18.640;2022-10-16T05:40:52;27.40;;;18.20;;
67074;SDS011;53990;50.334;18.640;2022-10-16T05:43:23;27.60;;;19.00;;
67074;SDS011;53990;50.334;18.640;2022-10-16T05:45:55;28.80;;;17.20;;
67074;SDS011;53990;50.334;18.640;2022-10-16T05:48:24;41.70;;;24.10;;
67074;SDS011;53990;50.334;18.640;2022-10-16T05:53:27;26.70;;;18.20;;
67074;SDS011;53990;50.334;18.640;2022-10-16T05:55:55;26.00;;;18.20;;
67074;SDS011;53990;50.334;18.640;2022-10-16T05:58:24;34.20;;;21.50;;
67074;SDS011;53990;50.334;18.640;2022-10-16T06:00:56;27.60;;;17.80;;
67074;SDS011;53990;50.334;18.640;2022-10-16T06:03:24;26.10;;;17.20;;
67074;SDS011;53990;50.334;18.640;2022-10-16T06:05:51;23.20;;;17.50;;
67074;SDS011;53990;50.334;18.640;2022-10-16T06:08:20;30.10;;;18.40;;
67074;SDS011;53990;50.334;18.640;2022-10-16T06:10:49;24.60;;;17.70;;
67074;SDS011;53990;50.334;18.640;2022-10-16T06:13:27;27.70;;;18.50;;
67074;SDS011;53990;50.334;18.640;2022-10-16T06:15:56;31.20;;;18.50;;
67074;SDS011;53990;50.334;18.640;2022-10-16T06:18:24;26.10;;;18.90;;
67074;SDS011;53990;50.334;18.640;2022-10-16T06:20:52;28.50;;;18.00;;
67074;SDS011;53990;50.334;18.640;2022-10-16T06:23:19;24.10;;;18.10;;
67074;SDS011;53990;50.334;18.640;2022-10-16T06:25:46;30.30;;;17.80;;
67074;SDS011;53990;50.334;18.640;2022-10-16T06:28:14;28.80;;;17.20;;
67074;SDS011;53990;50.334;18.640;2022-10-16T06:30:42;23.40;;;16.80;;
67074;SDS011;53990;50.334;18.640;2022-10-16T06:33:12;21.90;;;16.70;;
67074;SDS011;53990;50.334;18.640;2022-10-16T06:35:40;27.10;;;17.40;;
67074;SDS011;53990;50.334;18.640;2022-10-16T06:38:07;24.80;;;18.00;;
67074;SDS011;53990;50.334;18.640;2022-10-16T06:40:34;24.40;;;17.30;;
67074;SDS011;53990;50.334;18.640;2022-10-16T06:43:01;29.20;;;19.50;;
67074;SDS011;53990;50.334;18.640;2022-10-16T06:45:29;25.60;;;19.10;;
67074;SDS011;53990;50.334;18.640;2022-10-16T06:47:56;26.50;;;16.80;;
67074;SDS011;53990;50.334;18.640;2022-10-16T06:50:23;24.80;;;17.30;;
67074;SDS011;53990;50.334;18.640;2022-10-16T06:52:50;25.60;;;17.50;;
67074;SDS011;53990;50.334;18.640;2022-10-16T06:55:17;25.40;;;16.80;;
67074;SDS011;53990;50.334;18.640;2022-10-16T06:57:47;26.60;;;17.80;;
67074;SDS011;53990;50.334;18.640;2022-10-16T07:00:15;27.40;;;17.80;;
67074;SDS011;53990;50.334;18.640;2022-10-16T07:02:42;23.50;;;17.20;;
67074;SDS011;53990;50.334;18.640;2022-10-16T07:05:09;23.80;;;16.90;;
67074;SDS011;53990;50.334;18.640;2022-10-16T07:07:36;26.60;;;17.00;;
67074;SDS011;53990;50.334;18.640;2022-10-16T07:10:04;22.70;;;16.30;;
67074;SDS011;53990;50.334;18.640;2022-10-16T07:12:31;24.50;;;16.70;;
67074;SDS011;53990;50.334;18.640;2022-10-16T07:14:58;26.20;;;16.60;;
67074;SDS011;53990;50.334;18.640;2022-10-16T07:17:30;23.70;;;16.40;;
67074;SDS011;53990;50.334;18.640;2022-10-16T07:19:57;24.10;;;16.60;;
67074;SDS011;53990;50.334;18.640;2022-10-16T07:22:24;24.20;;;16.30;;
67074;SDS011;53990;50.334;18.640;2022-10-16T07:24:52;20.90;;;15.30;;
67074;SDS011;53990;50.334;18.640;2022-10-16T07:27:19;22.60;;;14.50;;
67074;SDS011;53990;50.334;18.640;2022-10-16T07:29:49;21.30;;;15.00;;
67074;SDS011;53990;50.334;18.640;2022-10-16T07:32:16;21.10;;;14.30;;
67074;SDS011;53990;50.334;18.640;2022-10-16T07:34:43;22.30;;;14.80;;
67074;SDS011;53990;50.334;18.640;2022-10-16T07:37:11;18.60;;;13.80;;
67074;SDS011;53990;50.334;18.640;2022-10-16T07:39:38;21.80;;;14.20;;
67074;SDS011;53990;50.334;18.640;2022-10-16T07:42:05;19.90;;;14.90;;
67074;SDS011;53990;50.334;18.640;2022-10-16T07:44:33;22.80;;;14.30;;
67074;SDS011;53990;50.334;18.640;2022-10-16T07:47:00;17.00;;;12.80;;
67074;SDS011;53990;50.334;18.640;2022-10-16T07:49:27;22.40;;;14.40;;
67074;SDS011;53990;50.334;18.640;2022-10-16T07:51:54;22.80;;;14.70;;
67074;SDS011;53990;50.334;18.640;2022-10-16T07:54:21;23.10;;;13.50;;
67074;SDS011;53990;50.334;18.640;2022-10-16T07:56:48;18.60;;;13.80;;
67074;SDS011;53990;50.334;18.640;2022-10-16T07:59:16;19.00;;;13.90;;
67074;SDS011;53990;50.334;18.640;2022-10-16T08:01:43;20.10;;;13.60;;
67074;SDS011;53990;50.334;18.640;2022-10-16T08:04:10;18.60;;;13.30;;
67074;SDS011;53990;50.334;18.640;2022-10-16T08:06:39;17.30;;;13.30;;
67074;SDS011;53990;50.334;18.640;2022-10-16T08:09:08;21.50;;;13.00;;
67074;SDS011;53990;50.334;18.640;2022-10-16T08:11:35;18.50;;;13.40;;
67074;SDS011;53990;50.334;18.640;2022-10-16T08:14:02;20.40;;;13.70;;
67074;SDS011;53990;50.334;18.640;2022-10-16T08:16:29;18.40;;;13.70;;
67074;SDS011;53990;50.334;18.640;2022-10-16T08:18:57;19.00;;;13.50;;
67074;SDS011;53990;50.334;18.640;2022-10-16T08:21:24;21.00;;;14.60;;
67074;SDS011;53990;50.334;18.640;2022-10-16T08:23:53;19.70;;;14.20;;
67074;SDS011;53990;50.334;18.640;2022-10-16T08:26:20;21.20;;;14.00;;
67074;SDS011;53990;50.334;18.640;2022-10-16T08:28:50;20.30;;;13.60;;
67074;SDS011;53990;50.334;18.640;2022-10-16T08:31:18;21.50;;;13.60;;
67074;SDS011;53990;50.334;18.640;2022-10-16T08:33:45;19.70;;;14.50;;
67074;SDS011;53990;50.334;18.640;2022-10-16T08:36:15;21.40;;;14.00;;
67074;SDS011;53990;50.334;18.640;2022-10-16T08:38:43;17.90;;;13.20;;
67074;SDS011;53990;50.334;18.640;2022-10-16T08:46:30;19.80;;;13.90;;
67074;SDS011;53990;50.334;18.640;2022-10-16T08:48:59;17.50;;;13.30;;
67074;SDS011;53990;50.334;18.640;2022-10-16T08:51:30;18.70;;;13.80;;
67074;SDS011;53990;50.334;18.640;2022-10-16T08:56:54;17.50;;;13.60;;
67074;SDS011;53990;50.334;18.640;2022-10-16T08:59:22;20.60;;;13.80;;
67074;SDS011;53990;50.334;18.640;2022-10-16T09:01:51;18.70;;;12.90;;
67074;SDS011;53990;50.334;18.640;2022-10-16T09:04:46;17.80;;;12.60;;
67074;SDS011;53990;50.334;18.640;2022-10-16T09:07:24;18.70;;;12.80;;
67074;SDS011;53990;50.334;18.640;2022-10-16T09:12:42;16.60;;;13.10;;
67074;SDS011;53990;50.334;18.640;2022-10-16T09:20:32;17.80;;;12.40;;
67074;SDS011;53990;50.334;18.640;2022-10-16T09:23:12;17.20;;;11.90;;
67074;SDS011;53990;50.334;18.640;2022-10-16T09:25:47;17.40;;;11.50;;
67074;SDS011;53990;50.334;18.640;2022-10-16T09:28:17;17.80;;;11.70;;
67074;SDS011;53990;50.334;18.640;2022-10-16T09:30:46;12.10;;;10.00;;
67074;SDS011;53990;50.334;18.640;2022-10-16T09:33:17;17.60;;;11.10;;
67074;SDS011;53990;50.334;18.640;2022-10-16T09:35:47;12.00;;;9.70;;
67074;SDS011;53990;50.334;18.640;2022-10-16T09:38:29;16.70;;;10.80;;
67074;SDS011;53990;50.334;18.640;2022-10-16T09:40:58;16.70;;;11.20;;
67074;SDS011;53990;50.334;18.640;2022-10-16T09:43:30;12.80;;;10.20;;
67074;SDS011;53990;50.334;18.640;2022-10-16T09:46:22;15.50;;;11.90;;
67074;SDS011;53990;50.334;18.640;2022-10-16T09:48:50;14.50;;;11.30;;
67074;SDS011;53990;50.334;18.640;2022-10-16T09:51:22;14.40;;;10.60;;
67074;SDS011;53990;50.334;18.640;2022-10-16T09:54:14;16.80;;;11.30;;
67074;SDS011;53990;50.334;18.640;2022-10-16T09:56:41;14.10;;;11.30;;
67074;SDS011;53990;50.334;18.640;2022-10-16T09:59:13;17.80;;;11.60;;
67074;SDS011;53990;50.334;18.640;2022-10-16T10:01:48;13.60;;;10.70;;
67074;SDS011;53990;50.334;18.640;2022-10-16T10:04:21;14.40;;;11.20;;
67074;SDS011;53990;50.334;18.640;2022-10-16T10:06:53;19.30;;;12.30;;
67074;SDS011;53990;50.334;18.640;2022-10-16T10:09:23;15.10;;;11.80;;
67074;SDS011;53990;50.334;18.640;2022-10-16T10:14:33;13.70;;;11.30;;
67074;SDS011;53990;50.334;18.640;2022-10-16T10:22:31;16.60;;;11.10;;
67074;SDS011;53990;50.334;18.640;2022-10-16T10:30:33;17.40;;;11.90;;
67074;SDS011;53990;50.334;18.640;2022-10-16T10:36:01;16.80;;;10.80;;
67074;SDS011;53990;50.334;18.640;2022-10-16T10:38:38;14.10;;;11.50;;
67074;SDS011;53990;50.334;18.640;2022-10-16T10:43:59;14.30;;;11.20;;
67074;SDS011;53990;50.334;18.640;2022-10-16T10:46:35;15.50;;;11.40;;
67074;SDS011;53990;50.334;18.640;2022-10-16T10:50:03;15.00;;;11.50;;
67074;SDS011;53990;50.334;18.640;2022-10-16T10:54:58;15.00;;;11.00;;
67074;SDS011;53990;50.334;18.640;2022-10-16T10:57:43;18.30;;;11.60;;
67074;SDS011;53990;50.334;18.640;2022-10-16T11:03:04;14.80;;;10.70;;
67074;SDS011;53990;50.334;18.640;2022-10-16T11:05:42;14.70;;;11.30;;
67074;SDS011;53990;50.334;18.640;2022-10-16T11:08:18;14.70;;;10.90;;
67074;SDS011;53990;50.334;18.640;2022-10-16T11:16:58;15.10;;;11.00;;
67074;SDS011;53990;50.334;18.640;2022-10-16T11:19:30;15.50;;;10.50;;
67074;SDS011;53990;50.334;18.640;2022-10-16T11:25:13;14.60;;;10.50;;
67074;SDS011;53990;50.334;18.640;2022-10-16T11:27:47;12.20;;;9.80;;
67074;SDS011;53990;50.334;18.640;2022-10-16T11:30:24;12.60;;;9.40;;
67074;SDS011;53990;50.334;18.640;2022-10-16T11:35:55;11.00;;;8.90;;
67074;SDS011;53990;50.334;18.640;2022-10-16T11:38:29;9.60;;;8.00;;
67074;SDS011;53990;50.334;18.640;2022-10-16T11:41:02;11.10;;;8.80;;
67074;SDS011;53990;50.334;18.640;2022-10-16T11:43:38;10.50;;;8.20;;
67074;SDS011;53990;50.334;18.640;2022-10-16T11:46:25;10.90;;;9.20;;
67074;SDS011;53990;50.334;18.640;2022-10-16T11:49:00;10.60;;;8.50;;
67074;SDS011;53990;50.334;18.640;2022-10-16T11:54:20;11.60;;;7.50;;
67074;SDS011;53990;50.334;18.640;2022-10-16T11:56:51;9.40;;;8.20;;
67074;SDS011;53990;50.334;18.640;2022-10-16T12:05:25;9.60;;;7.80;;
67074;SDS011;53990;50.334;18.640;2022-10-16T12:08:13;10.50;;;8.00;;
67074;SDS011;53990;50.334;18.640;2022-10-16T12:10:43;10.90;;;8.30;;
67074;SDS011;53990;50.334;18.640;2022-10-16T12:13:30;8.40;;;7.50;;
67074;SDS011;53990;50.334;18.640;2022-10-16T12:18:45;10.30;;;7.50;;
67074;SDS011;53990;50.334;18.640;2022-10-16T12:21:14;10.10;;;7.30;;
67074;SDS011;53990;50.334;18.640;2022-10-16T12:23:46;9.50;;;7.50;;
67074;SDS011;53990;50.334;18.640;2022-10-16T12:26:23;8.60;;;7.10;;
67074;SDS011;53990;50.334;18.640;2022-10-16T12:28:51;9.50;;;7.40;;
67074;SDS011;53990;50.334;18.640;2022-10-16T12:31:18;9.80;;;7.90;;
67074;SDS011;53990;50.334;18.640;2022-10-16T12:36:34;13.30;;;8.20;;
67074;SDS011;53990;50.334;18.640;2022-10-16T12:39:20;10.90;;;8.70;;
67074;SDS011;53990;50.334;18.640;2022-10-16T12:42:01;13.20;;;8.80;;
67074;SDS011;53990;50.334;18.640;2022-10-16T12:44:34;10.20;;;8.40;;
67074;SDS011;53990;50.334;18.640;2022-10-16T12:47:02;10.30;;;8.90;;
67074;SDS011;53990;50.334;18.640;2022-10-16T12:49:35;13.60;;;9.60;;
67074;SDS011;53990;50.334;18.640;2022-10-16T12:52:04;10.70;;;9.10;;
67074;SDS011;53990;50.334;18.640;2022-10-16T12:54:35;12.90;;;10.20;;
67074;SDS011;53990;50.334;18.640;2022-10-16T13:07:59;13.50;;;9.70;;
67074;SDS011;53990;50.334;18.640;2022-10-16T13:22:24;14.00;;;11.00;;
67074;SDS011;53990;50.334;18.640;2022-10-16T13:27:58;13.70;;;10.50;;
67074;SDS011;53990;50.334;18.640;2022-10-16T13:33:43;14.10;;;10.60;;
67074;SDS011;53990;50.334;18.640;2022-10-16T13:36:28;13.30;;;11.10;;
67074;SDS011;53990;50.334;18.640;2022-10-16T13:39:23;15.70;;;10.80;;
67074;SDS011;53990;50.334;18.640;2022-10-16T13:44:35;14.30;;;11.30;;
67074;SDS011;53990;50.334;18.640;2022-10-16T13:47:04;14.70;;;10.70;;
67074;SDS011;53990;50.334;18.640;2022-10-16T13:49:31;15.10;;;10.90;;
67074;SDS011;53990;50.334;18.640;2022-10-16T13:52:02;16.50;;;10.60;;
67074;SDS011;53990;50.334;18.640;2022-10-16T13:54:31;16.40;;;11.00;;
67074;SDS011;53990;50.334;18.640;2022-10-16T13:57:04;16.40;;;11.70;;
67074;SDS011;53990;50.334;18.640;2022-10-16T13:59:36;15.00;;;11.60;;
67074;SDS011;53990;50.334;18.640;2022-10-16T14:04:52;17.90;;;11.80;;
67074;SDS011;53990;50.334;18.640;2022-10-16T14:07:27;16.20;;;12.30;;
67074;SDS011;53990;50.334;18.640;2022-10-16T14:09:56;16.50;;;12.20;;
67074;SDS011;53990;50.334;18.640;2022-10-16T14:12:27;18.30;;;12.90;;
67074;SDS011;53990;50.334;18.640;2022-10-16T14:14:55;14.30;;;11.40;;
67074;SDS011;53990;50.334;18.640;2022-10-16T14:17:27;19.40;;;12.60;;
67074;SDS011;53990;50.334;18.640;2022-10-16T14:19:59;18.50;;;12.00;;
67074;SDS011;53990;50.334;18.640;2022-10-16T14:22:37;17.80;;;12.00;;
67074;SDS011;53990;50.334;18.640;2022-10-16T14:30:54;15.70;;;11.10;;
67074;SDS011;53990;50.334;18.640;2022-10-16T14:36:20;17.90;;;12.60;;
67074;SDS011;53990;50.334;18.640;2022-10-16T14:38:59;16.50;;;12.30;;
67074;SDS011;53990;50.334;18.640;2022-10-16T14:41:29;17.10;;;12.50;;
67074;SDS011;53990;50.334;18.640;2022-10-16T14:44:02;20.10;;;12.80;;
67074;SDS011;53990;50.334;18.640;2022-10-16T14:46:44;16.90;;;12.70;;
67074;SDS011;53990;50.334;18.640;2022-10-16T14:49:18;19.30;;;14.20;;
67074;SDS011;53990;50.334;18.640;2022-10-16T14:51:52;19.60;;;13.20;;
67074;SDS011;53990;50.334;18.640;2022-10-16T14:54:47;20.00;;;13.20;;
67074;SDS011;53990;50.334;18.640;2022-10-16T14:57:18;20.00;;;13.80;;
67074;SDS011;53990;50.334;18.640;2022-10-16T14:59:52;24.50;;;13.40;;
67074;SDS011;53990;50.334;18.640;2022-10-16T15:02:35;17.80;;;13.10;;
67074;SDS011;53990;50.334;18.640;2022-10-16T15:05:24;18.30;;;13.50;;
67074;SDS011;53990;50.334;18.640;2022-10-16T15:07:53;22.30;;;15.70;;
67074;SDS011;53990;50.334;18.640;2022-10-16T15:10:22;17.40;;;13.20;;
67074;SDS011;53990;50.334;18.640;2022-10-16T15:12:54;19.60;;;14.20;;
67074;SDS011;53990;50.334;18.640;2022-10-16T15:15:28;20.00;;;13.70;;
67074;SDS011;53990;50.334;18.640;2022-10-16T15:18:01;21.80;;;15.10;;
67074;SDS011;53990;50.334;18.640;2022-10-16T15:20:33;21.90;;;15.10;;
67074;SDS011;53990;50.334;18.640;2022-10-16T15:23:15;21.70;;;15.20;;
67074;SDS011;53990;50.334;18.640;2022-10-16T15:25:46;21.70;;;13.40;;
67074;SDS011;53990;50.334;18.640;2022-10-16T15:28:17;18.30;;;14.40;;
67074;SDS011;53990;50.334;18.640;2022-10-16T15:30:52;22.70;;;17.10;;
67074;SDS011;53990;50.334;18.640;2022-10-16T15:33:23;24.90;;;15.10;;
67074;SDS011;53990;50.334;18.640;2022-10-16T15:35:57;21.60;;;15.30;;
67074;SDS011;53990;50.334;18.640;2022-10-16T15:38:31;25.40;;;15.00;;
67074;SDS011;53990;50.334;18.640;2022-10-16T15:40:58;20.50;;;15.00;;
67074;SDS011;53990;50.334;18.640;2022-10-16T15:43:28;20.90;;;14.60;;
67074;SDS011;53990;50.334;18.640;2022-10-16T15:46:03;21.50;;;14.50;;
67074;SDS011;53990;50.334;18.640;2022-10-16T15:48:31;21.10;;;14.10;;
67074;SDS011;53990;50.334;18.640;2022-10-16T15:51:00;19.90;;;14.80;;
67074;SDS011;53990;50.334;18.640;2022-10-16T15:53:27;23.70;;;15.50;;
67074;SDS011;53990;50.334;18.640;2022-10-16T15:56:01;23.70;;;14.50;;
67074;SDS011;53990;50.334;18.640;2022-10-16T15:58:32;20.00;;;15.10;;
67074;SDS011;53990;50.334;18.640;2022-10-16T16:01:03;21.90;;;14.90;;
67074;SDS011;53990;50.334;18.640;2022-10-16T16:04:03;21.40;;;15.70;;
67074;SDS011;53990;50.334;18.640;2022-10-16T16:06:34;25.10;;;18.70;;
67074;SDS011;53990;50.334;18.640;2022-10-16T16:09:07;22.30;;;15.80;;
67074;SDS011;53990;50.334;18.640;2022-10-16T16:12:00;20.00;;;14.80;;
67074;SDS011;53990;50.334;18.640;2022-10-16T16:14:31;19.30;;;14.80;;
67074;SDS011;53990;50.334;18.640;2022-10-16T16:16:58;20.70;;;16.00;;
67074;SDS011;53990;50.334;18.640;2022-10-16T16:19:26;22.80;;;16.30;;
67074;SDS011;53990;50.334;18.640;2022-10-16T16:21:56;22.40;;;15.80;;
67074;SDS011;53990;50.334;18.640;2022-10-16T16:24:49;24.00;;;16.10;;
67074;SDS011;53990;50.334;18.640;2022-10-16T16:27:16;27.30;;;16.80;;
67074;SDS011;53990;50.334;18.640;2022-10-16T16:29:53;20.90;;;16.10;;
67074;SDS011;53990;50.334;18.640;2022-10-16T16:32:28;26.40;;;17.00;;
67074;SDS011;53990;50.334;18.640;2022-10-16T16:34:58;27.70;;;17.10;;
67074;SDS011;53990;50.334;18.640;2022-10-16T16:37:50;25.00;;;16.90;;
67074;SDS011;53990;50.334;18.640;2022-10-16T16:40:20;22.70;;;16.70;;
67074;SDS011;53990;50.334;18.640;2022-10-16T16:42:48;24.20;;;18.00;;